Time;durP1;ratioP1;P1;durP2;ratioP2;P2;SDS_P1;SDS_P2;PMS_P1;PMS_P2;Temp;Humidity;BMP_temperature;BMP_pressure;BME280_temperature;BME280_humidity;BME280_pressure;Samples;Min_cycle;Max_cycle;Signal;HPM_P1;HPM_P2
2023/10/11 00:06:35;;;;;;;5.55;1.52;;;;;;;24.39;46.00;100879.13;21170527;28;20042;-62
2023/10/11 00:16:40;;;;;;;5.63;1.70;;;;;;;24.39;45.62;100895.06;21163360;28;20037;-62
2023/10/11 00:26:44;;;;;;;3.33;1.52;;;;;;;24.38;45.84;100907.41;21169196;28;20048;-63
2023/10/11 00:36:49;;;;;;;5.32;1.80;;;;;;;24.37;46.07;100909.34;21159330;28;20088;-62
2023/10/11 00:46:58;;;;;;;1.98;1.55;;;;;;;24.37;45.75;100902.94;21167205;28;20044;-61
2023/10/11 00:57:00;;;;;;;2.28;1.60;;;;;;;24.35;45.96;100918.03;21141482;28;20098;-62
2023/10/11 01:07:02;;;;;;;3.83;1.60;;;;;;;24.30;45.99;100923.69;21149174;28;20040;-63
2023/10/11 01:17:03;;;;;;;2.38;1.67;;;;;;;24.24;45.95;100927.72;21164562;28;20040;-63
2023/10/11 01:27:05;;;;;;;2.00;1.45;;;;;;;24.33;45.95;100937.09;21142863;28;20066;-63
2023/10/11 01:37:07;;;;;;;2.22;1.80;;;;;;;24.34;45.74;100941.53;21109913;28;20070;-65
2023/10/11 01:47:08;;;;;;;1.92;1.73;;;;;;;24.31;46.01;100944.94;21079236;28;20097;-64
2023/10/11 01:57:10;;;;;;;4.07;1.60;;;;;;;24.32;45.85;100943.78;21109461;28;20089;-64
2023/10/11 02:07:12;;;;;;;2.70;1.50;;;;;;;24.33;46.03;100948.28;21156360;28;20061;-62
2023/10/11 02:17:17;;;;;;;2.25;1.70;;;;;;;24.31;45.93;100953.31;21142938;28;20041;-62
2023/10/11 02:27:21;;;;;;;4.05;1.80;;;;;;;24.32;46.02;100974.56;21154545;28;20482;-62
2023/10/11 02:37:22;;;;;;;2.72;2.03;;;;;;;24.31;46.20;100972.91;21142741;28;20048;-62
2023/10/11 02:47:27;;;;;;;3.03;1.90;;;;;;;24.30;46.07;100971.25;21155405;28;20481;-62
2023/10/11 02:57:28;;;;;;;4.50;1.63;;;;;;;24.31;46.15;100970.09;21071726;28;1588705;-61
2023/10/11 03:07:33;;;;;;;3.85;2.25;;;;;;;24.33;47.62;100969.81;21161566;27;20040;-62
2023/10/11 03:17:42;;;;;;;8.82;2.15;;;;;;;24.38;49.04;100958.56;21146930;28;20494;-62
2023/10/11 03:27:49;;;;;;;4.45;2.13;;;;;;;24.40;50.86;100947.06;21173297;28;20048;-61
2023/10/11 03:37:59;;;;;;;5.15;2.50;;;;;;;24.15;51.76;100906.34;21163090;28;20392;-62
2023/10/11 03:48:01;;;;;;;5.32;2.40;;;;;;;24.40;52.24;100941.47;21172107;28;20047;-61
2023/10/11 03:58:03;;;;;;;6.18;2.47;;;;;;;24.42;51.76;100944.78;21119562;28;20036;-63
2023/10/11 04:08:05;;;;;;;3.58;2.22;;;;;;;24.41;51.41;100943.97;21155451;28;20032;-63
2023/10/11 04:18:43;;;;;;;5.25;2.22;;;;;;;24.41;51.12;100940.34;21160924;28;20070;-62
2023/10/11 04:28:41;;;;;;;3.90;2.10;;;;;;;24.41;50.91;100932.78;21164667;28;20039;-63
2023/10/11 04:38:47;;;;;;;4.07;2.70;;;;;;;24.39;50.66;100929.47;21156517;27;20371;-63
2023/10/11 04:48:49;;;;;;;4.32;2.08;;;;;;;24.41;50.38;100934.75;21150381;28;20043;-62
2023/10/11 04:58:54;;;;;;;4.43;2.35;;;;;;;24.41;49.84;100934.75;21159023;28;20101;-61
2023/10/11 05:09:03;;;;;;;3.88;2.03;;;;;;;24.40;49.78;100930.28;21163129;28;20089;-62
2023/10/11 05:19:06;;;;;;;3.88;2.10;;;;;;;24.39;49.49;100937.84;21129944;28;20036;-61
2023/10/11 05:29:23;;;;;;;3.38;2.20;;;;;;;24.37;49.28;100914.13;21132386;28;20066;-61
2023/10/11 06:00:18;;;;;;;2.00;1.80;;;;;;;24.38;48.88;100921.38;21157278;28;20036;-62
2023/10/11 06:10:19;;;;;;;3.65;2.22;;;;;;;24.38;48.73;100927.00;21161014;28;20047;-63
2023/10/11 06:20:27;;;;;;;2.28;1.90;;;;;;;24.37;48.68;100914.13;21160691;28;20035;-62
2023/10/11 06:30:28;;;;;;;3.23;2.30;;;;;;;24.22;48.69;100890.81;21145020;28;20040;-63
2023/10/11 06:40:39;;;;;;;2.45;2.08;;;;;;;24.37;48.54;100906.56;21151622;28;20470;-63
2023/10/11 06:50:40;;;;;;;3.17;2.25;;;;;;;24.34;48.45;100896.78;21156984;28;20825;-62
2023/10/11 07:00:48;;;;;;;2.47;2.25;;;;;;;24.33;48.22;100897.94;21142908;28;20039;-62
2023/10/11 07:21:08;;;;;;;2.47;2.03;;;;;;;24.32;48.17;100896.25;21163899;28;20028;-62
2023/10/11 07:31:16;;;;;;;2.97;2.30;;;;;;;24.31;48.09;100900.19;21129769;28;20075;-62
2023/10/11 07:41:18;;;;;;;2.85;2.22;;;;;;;24.29;47.83;100896.06;21094614;28;20474;-62
2023/10/11 07:51:19;;;;;;;2.65;2.38;;;;;;;24.30;47.69;100906.91;21163829;28;20097;-62
2023/10/11 08:01:30;;;;;;;3.75;2.75;;;;;;;24.30;47.87;100897.72;21171528;28;20096;-62
2023/10/11 08:11:45;;;;;;;2.42;2.22;;;;;;;24.28;47.70;100906.41;21163971;28;20116;-62
2023/10/11 08:21:57;;;;;;;2.53;2.30;;;;;;;24.20;47.92;100898.72;21166396;28;20097;-62
2023/10/11 08:32:06;;;;;;;3.63;1.90;;;;;;;24.24;47.54;100905.34;21167299;28;20112;-63
2023/10/11 08:42:14;;;;;;;2.80;2.40;;;;;;;24.10;47.48;100876.50;21160636;28;20036;-62
2023/10/11 08:52:22;;;;;;;2.53;2.30;;;;;;;24.23;47.41;100914.84;21167602;28;20412;-61
2023/10/11 09:02:29;;;;;;;2.78;2.13;;;;;;;24.23;47.41;100914.84;21128592;28;20036;-62
2023/10/11 09:12:48;;;;;;;2.85;2.40;;;;;;;24.21;47.42;100921.91;21162819;28;20073;-62
2023/10/11 09:22:55;;;;;;;2.70;2.50;;;;;;;24.16;47.45;100922.81;21164812;28;20089;-62
2023/10/11 09:32:59;;;;;;;2.73;2.33;;;;;;;24.22;47.21;100943.13;21159354;28;20040;-62
2023/10/11 09:43:01;;;;;;;2.97;2.50;;;;;;;24.19;47.28;100936.19;21160545;28;20144;-61
2023/10/11 09:53:07;;;;;;;4.18;2.60;;;;;;;24.20;47.09;100948.22;21155794;28;20051;-61
2023/10/11 10:03:13;;;;;;;2.95;2.25;;;;;;;24.19;47.33;100966.94;21143041;28;20061;-62
2023/10/11 10:13:14;;;;;;;3.25;2.38;;;;;;;24.17;47.10;100955.22;21162088;28;20048;-62
2023/10/11 10:23:20;;;;;;;2.60;1.90;;;;;;;24.18;47.14;100972.81;21154205;28;20031;-61
2023/10/11 10:33:27;;;;;;;3.03;2.72;;;;;;;24.15;47.26;100973.44;21148935;28;20482;-61
2023/10/11 10:43:31;;;;;;;;;;;;;;;24.14;47.18;100964.19;21131238;28;20105;-60
2023/10/11 10:53:51;;;;;;;2.75;2.50;;;;;;;24.15;47.18;100991.06;21098580;28;19916;-62
2023/10/11 11:03:57;;;;;;;3.33;2.72;;;;;;;24.05;47.07;100974.41;21141770;28;20040;-62
2023/10/11 11:14:02;;;;;;;2.75;2.50;;;;;;;24.13;46.88;101003.66;21160858;28;20451;-61
2023/10/11 11:24:15;;;;;;;3.63;2.60;;;;;;;24.05;47.23;100996.75;21131041;28;20044;-62
2023/10/11 11:34:25;;;;;;;3.47;2.63;;;;;;;24.11;47.25;101017.94;21147586;28;20101;-61
2023/10/11 11:44:28;;;;;;;3.20;2.60;;;;;;;24.11;47.33;101023.53;21142005;28;20039;-62
2023/10/11 11:54:29;;;;;;;3.05;2.70;;;;;;;24.12;47.07;101047.56;21153861;27;20374;-61
2023/10/11 12:04:30;;;;;;;2.60;2.38;;;;;;;24.09;47.48;101054.56;21099314;28;20040;-62
2023/10/11 12:14:39;;;;;;;4.30;3.13;;;;;;;24.00;47.40;101039.59;21142496;28;20058;-62
2023/10/11 12:24:45;;;;;;;5.15;2.92;;;;;;;24.08;47.49;101069.69;21112995;28;20036;-61
2023/10/11 12:34:52;;;;;;;5.45;3.15;;;;;;;24.07;47.50;101083.97;21083387;28;20040;-62
2023/10/11 12:44:53;;;;;;;6.32;3.30;;;;;;;24.06;47.36;101087.91;21083742;28;20039;-62
2023/10/11 12:54:55;;;;;;;4.80;3.30;;;;;;;24.07;47.46;101111.94;21082534;28;20047;-62
2023/10/11 13:04:59;;;;;;;4.28;2.70;;;;;;;24.01;47.51;101107.53;21081692;28;20040;-63
2023/10/11 13:15:07;;;;;;;3.67;3.00;;;;;;;23.84;47.37;101064.13;21080346;28;20098;-62
2023/10/11 13:25:22;;;;;;;3.85;3.00;;;;;;;24.07;47.36;101118.34;21079284;28;20073;-61
2023/10/11 13:35:24;;;;;;;5.50;3.03;;;;;;;24.08;47.66;101119.19;21079148;28;20073;-62
2023/10/11 13:45:27;;;;;;;4.68;3.20;;;;;;;24.03;47.35;101116.44;21078587;28;20040;-62
2023/10/11 13:55:28;;;;;;;4.72;3.50;;;;;;;24.12;47.42;101130.59;21077776;28;20043;-62
2023/10/11 14:05:37;;;;;;;6.82;3.08;;;;;;;24.11;47.29;101124.19;21078363;28;20066;-63
2023/10/11 14:15:42;;;;;;;3.47;2.88;;;;;;;24.07;47.21;101123.94;21076815;28;20036;-62
2023/10/11 14:25:44;;;;;;;3.67;2.75;;;;;;;24.13;47.13;101133.09;21076203;28;20066;-61
2023/10/11 14:35:49;;;;;;;4.43;3.00;;;;;;;24.13;47.18;101130.28;21090816;28;20494;-62
2023/10/11 14:45:51;;;;;;;3.60;2.95;;;;;;;24.14;47.09;101123.56;21093917;28;20028;-62
2023/10/11 14:55:55;;;;;;;4.50;2.95;;;;;;;23.93;47.32;101100.63;21092938;28;20044;-63
2023/10/11 15:06:04;;;;;;;3.35;2.72;;;;;;;24.08;47.22;101108.00;21091867;28;20040;-62
2023/10/11 15:16:06;;;;;;;3.88;2.97;;;;;;;24.17;47.09;101117.38;21090287;28;20040;-61
2023/10/11 15:26:11;;;;;;;3.42;2.97;;;;;;;24.18;46.89;101107.88;21087934;28;20032;-61
2023/10/11 15:36:14;;;;;;;3.15;2.85;;;;;;;24.19;46.79;101103.97;21088288;28;20485;-62
2023/10/11 15:46:21;;;;;;;3.50;2.78;;;;;;;24.21;46.71;101112.88;21087407;28;20552;-62
2023/10/11 15:56:23;;;;;;;3.53;2.93;;;;;;;24.22;46.67;101105.31;21086964;28;20044;-62
2023/10/11 16:06:25;;;;;;;4.22;2.63;;;;;;;24.23;46.69;101099.41;21086120;28;20040;-62
2023/10/11 16:16:27;;;;;;;3.78;2.70;;;;;;;24.26;46.72;101090.44;21085309;28;20426;-62
2023/10/11 16:26:30;;;;;;;3.25;2.35;;;;;;;24.28;46.38;101085.38;21085288;28;20044;-64
2023/10/11 16:36:31;;;;;;;2.75;2.35;;;;;;;24.29;46.63;101081.44;21084480;28;20032;-61
2023/10/11 16:46:33;;;;;;;3.10;2.75;;;;;;;24.31;46.65;101054.00;21082803;28;20604;-61
2023/10/11 16:56:37;;;;;;;3.33;2.30;;;;;;;24.34;46.52;101053.41;21081028;28;20052;-62
2023/10/11 17:06:42;;;;;;;2.60;2.38;;;;;;;24.36;46.38;101047.50;21081049;28;20044;-62
2023/10/11 17:16:47;;;;;;;2.53;2.30;;;;;;;24.34;46.33;101011.47;21080559;28;20048;-61
2023/10/11 17:26:48;;;;;;;3.00;2.40;;;;;;;24.41;46.34;101010.25;21078625;28;20040;-62
2023/10/11 17:36:49;;;;;;;2.97;2.50;;;;;;;24.39;46.23;100995.75;21078796;28;20044;-62
2023/10/11 17:46:51;;;;;;;3.30;2.47;;;;;;;24.44;46.25;100987.28;21078638;28;20039;-60
2023/10/11 17:56:53;;;;;;;2.80;2.25;;;;;;;24.45;46.30;100967.41;21077718;28;20607;-62
2023/10/11 18:06:54;;;;;;;2.40;2.20;;;;;;;24.47;46.40;100948.34;21076380;28;20040;-62
2023/10/11 18:16:56;;;;;;;3.60;2.42;;;;;;;24.44;46.45;100932.19;21076256;28;20101;-62
2023/10/11 18:26:58;;;;;;;2.47;2.20;;;;;;;24.49;45.99;100939.66;21095904;28;20447;-62
2023/10/11 18:36:59;;;;;;;4.05;2.55;;;;;;;24.52;46.21;100945.47;21134370;28;20120;-63
2023/10/11 18:47:00;;;;;;;5.03;2.25;;;;;;;24.53;46.29;100949.09;21112006;28;20036;-62
2023/10/11 18:57:06;;;;;;;1.98;1.75;;;;;;;24.52;46.16;100916.69;21140392;28;20101;-62
2023/10/11 19:07:16;;;;;;;2.53;2.00;;;;;;;24.58;45.90;100909.84;21141002;28;20040;-62
2023/10/11 19:17:17;;;;;;;2.30;2.10;;;;;;;24.59;45.93;100929.09;21151972;28;20156;-62
2023/10/11 19:27:19;;;;;;;2.97;1.95;;;;;;;24.58;46.18;100918.22;21130409;28;20036;-63
2023/10/11 19:37:20;;;;;;;2.78;2.15;;;;;;;24.61;46.12;100909.25;21149731;28;20039;-63
2023/10/11 19:47:21;;;;;;;3.10;1.90;;;;;;;24.65;46.10;100903.84;21168450;28;20046;-63
2023/10/11 19:57:25;;;;;;;2.67;1.77;;;;;;;24.65;45.94;100899.09;21168598;27;20039;-62
2023/10/11 20:07:28;;;;;;;4.32;2.30;;;;;;;24.66;46.13;100903.53;21133058;28;20044;-62
2023/10/11 20:17:31;;;;;;;5.20;2.10;;;;;;;24.66;46.11;100899.91;21154363;27;20039;-63
2023/10/11 20:27:34;;;;;;;2.58;2.15;;;;;;;24.68;46.21;100904.06;21164572;28;20028;-63
2023/10/11 20:37:37;;;;;;;2.20;1.80;;;;;;;24.69;46.14;100888.09;21155542;27;20039;-63
2023/10/11 20:47:42;;;;;;;6.10;1.90;;;;;;;24.69;46.18;100897.31;21161845;28;20179;-63
2023/10/11 20:57:45;;;;;;;6.72;2.42;;;;;;;24.70;46.16;100904.59;21154297;27;20035;-63
2023/10/11 21:07:49;;;;;;;4.85;1.92;;;;;;;24.71;45.97;100914.66;21157796;28;20483;-62
2023/10/11 21:17:51;;;;;;;4.97;2.13;;;;;;;24.73;46.84;100929.16;21161594;27;20051;-63
2023/10/11 21:27:52;;;;;;;3.65;1.80;;;;;;;24.74;47.71;100930.84;21135562;28;20048;-62
2023/10/11 21:37:56;;;;;;;4.85;2.00;;;;;;;24.74;48.49;100919.63;21150240;28;20047;-64
2023/10/11 21:48:00;;;;;;;3.60;2.15;;;;;;;24.76;48.78;100922.94;21148281;28;20028;-65
2023/10/11 21:58:09;;;;;;;3.95;2.25;;;;;;;24.78;48.73;100933.81;21150244;28;20411;-64
2023/10/11 22:08:10;;;;;;;2.75;2.00;;;;;;;24.79;50.53;100953.13;21158560;27;20035;-62
2023/10/11 22:18:18;;;;;;;4.35;2.50;;;;;;;24.79;50.97;100939.13;21154025;28;20055;-63
2023/10/11 22:28:19;;;;;;;3.95;2.10;;;;;;;24.81;50.94;100950.84;21158617;28;20368;-62
2023/10/11 22:38:21;;;;;;;5.80;1.83;;;;;;;24.82;50.66;100955.28;21153171;28;20040;-64
2023/10/11 22:48:22;;;;;;;2.88;2.00;;;;;;;24.82;50.58;100960.06;21159459;28;20039;-63
2023/10/11 22:58:24;;;;;;;3.25;2.00;;;;;;;24.81;50.51;100959.22;21145807;28;20055;-65
2023/10/11 23:08:25;;;;;;;3.88;2.22;;;;;;;24.71;50.66;100959.41;21165560;28;20100;-62
2023/10/11 23:18:27;;;;;;;4.45;2.40;;;;;;;24.80;50.74;100979.97;21161283;27;20077;-65
2023/10/11 23:28:28;;;;;;;5.22;2.50;;;;;;;24.76;50.30;100967.72;21155290;28;20047;-62
2023/10/11 23:38:31;;;;;;;4.88;1.92;;;;;;;24.81;50.19;100981.63;21116908;27;20044;-62
2023/10/11 23:48:40;;;;;;;6.90;2.30;;;;;;;24.82;50.19;100982.44;21143121;28;20044;-61
2023/10/11 23:58:42;;;;;;;5.28;2.38;;;;;;;24.76;50.14;100984.50;21165705;28;20092;-61
